Time;durP1;ratioP1;P1;durP2;ratioP2;P2;SDS_P1;SDS_P2;PMS_P1;PMS_P2;Temp;Humidity;BMP_temperature;BMP_pressure;BME280_temperature;BME280_humidity;BME280_pressure;Samples;Min_cycle;Max_cycle;Signal;HPM_P1;HPM_P2
2022/07/08 00:01:52;;;;;;;6.57;1.40;;;18.50;91.30;;;;;;5094964;28;20042;-64
2022/07/08 00:04:18;;;;;;;7.13;1.50;;;18.50;91.20;;;;;;5094611;28;20485;-64
2022/07/08 00:06:44;;;;;;;5.80;1.63;;;18.40;91.10;;;;;;5093255;28;20035;-64
2022/07/08 00:09:10;;;;;;;5.25;1.77;;;18.40;91.10;;;;;;5093492;28;20028;-65
2022/07/08 00:11:36;;;;;;;4.28;1.20;;;18.30;91.10;;;;;;5094341;28;20031;-64
2022/07/08 00:14:02;;;;;;;8.57;2.28;;;18.30;91.10;;;;;;5094370;28;20016;-64
2022/07/08 00:16:29;;;;;;;6.50;1.75;;;18.30;91.20;;;;;;5094562;28;20504;-65
2022/07/08 00:18:55;;;;;;;5.13;1.98;;;18.30;91.10;;;;;;5094427;28;20043;-65
2022/07/08 00:21:20;;;;;;;7.55;2.22;;;18.20;91.20;;;;;;5094010;28;20145;-65
2022/07/08 00:23:46;;;;;;;9.43;1.98;;;18.10;91.30;;;;;;5094083;28;20016;-65
2022/07/08 00:26:13;;;;;;;5.15;1.60;;;18.10;91.50;;;;;;5092620;28;20028;-65
2022/07/08 00:28:38;;;;;;;9.75;2.15;;;18.10;91.50;;;;;;5093943;28;20400;-65
2022/07/08 00:31:04;;;;;;;8.98;1.88;;;18.00;91.60;;;;;;5094013;28;20035;-65
2022/07/08 00:33:29;;;;;;;6.70;1.75;;;17.90;91.70;;;;;;5093974;28;20045;-65
2022/07/08 00:35:55;;;;;;;7.75;2.47;;;17.80;92.00;;;;;;5094192;28;20036;-65
2022/07/08 00:38:21;;;;;;;5.95;1.60;;;17.70;92.00;;;;;;5094160;28;20514;-64
2022/07/08 00:40:46;;;;;;;5.15;1.67;;;17.70;92.20;;;;;;5093787;28;20133;-65
2022/07/08 00:43:36;;;;;;;9.60;2.58;;;17.60;92.10;;;;;;5093927;28;20062;-64
2022/07/08 00:46:02;;;;;;;7.20;1.95;;;17.50;92.20;;;;;;5095617;28;20103;-64
2022/07/08 00:48:28;;;;;;;5.15;2.03;;;17.40;92.50;;;;;;5092248;28;20062;-64
2022/07/08 00:50:54;;;;;;;9.23;1.88;;;17.30;92.60;;;;;;5093723;28;20143;-64
2022/07/08 00:53:21;;;;;;;7.80;1.90;;;17.20;92.60;;;;;;5093998;28;20029;-64
2022/07/08 00:55:46;;;;;;;6.45;2.08;;;17.10;92.90;;;;;;5094197;28;20024;-64
2022/07/08 00:58:12;;;;;;;8.30;1.90;;;17.10;93.00;;;;;;5093912;28;20445;-64
2022/07/08 01:00:38;;;;;;;5.55;1.92;;;17.10;93.00;;;;;;5094176;28;20449;-64
2022/07/08 01:03:04;;;;;;;6.43;2.17;;;17.00;93.10;;;;;;5094252;28;20024;-64
2022/07/08 01:05:29;;;;;;;10.43;2.35;;;17.00;93.20;;;;;;5093887;28;20070;-65
2022/07/08 01:07:56;;;;;;;6.93;1.88;;;17.10;93.20;;;;;;5094248;28;20036;-65
2022/07/08 01:10:21;;;;;;;9.65;2.22;;;17.00;93.50;;;;;;5094164;28;20024;-65
2022/07/08 01:12:47;;;;;;;3.90;1.60;;;16.90;93.40;;;;;;5094695;28;20046;-64
2022/07/08 01:15:13;;;;;;;4.20;1.70;;;17.00;93.50;;;;;;5094378;28;20276;-64
2022/07/08 01:17:43;;;;;;;7.30;1.90;;;17.00;93.30;;;;;;5093721;28;20104;-64
2022/07/08 01:20:10;;;;;;;5.63;1.98;;;17.00;93.30;;;;;;5093478;28;20035;-65
2022/07/08 01:22:36;;;;;;;6.50;2.13;;;16.90;93.60;;;;;;5093249;28;20028;-63
2022/07/08 01:25:04;;;;;;;8.40;2.65;;;16.90;93.40;;;;;;5092904;28;20039;-65
2022/07/08 01:27:29;;;;;;;11.45;2.85;;;16.90;93.60;;;;;;5093027;28;20023;-64
2022/07/08 01:29:55;;;;;;;7.93;1.63;;;16.90;93.60;;;;;;5092189;28;20032;-65
2022/07/08 01:32:20;;;;;;;5.10;1.67;;;16.90;93.70;;;;;;5093279;28;20028;-65
2022/07/08 01:34:46;;;;;;;4.57;1.70;;;17.10;93.40;;;;;;5093293;28;20277;-65
2022/07/08 01:37:11;;;;;;;6.77;2.10;;;17.20;93.30;;;;;;5093436;28;20032;-64
2022/07/08 01:39:37;;;;;;;6.77;1.83;;;17.00;93.20;;;;;;5092864;28;20627;-65
2022/07/08 01:42:02;;;;;;;4.93;1.67;;;16.90;93.40;;;;;;5093770;28;20529;-65
2022/07/08 01:44:28;;;;;;;8.88;2.15;;;16.90;93.60;;;;;;5097919;28;20043;-65
2022/07/08 01:46:54;;;;;;;8.73;1.85;;;16.90;93.60;;;;;;5099281;28;20080;-65
2022/07/08 01:49:20;;;;;;;5.40;1.63;;;16.90;93.90;;;;;;5095659;28;20032;-64
2022/07/08 01:51:46;;;;;;;;;;;16.90;93.60;;;;;;5093568;28;20261;-64
2022/07/08 01:54:11;;;;;;;6.53;1.73;;;16.80;94.10;;;;;;5093169;28;19904;-64
2022/07/08 01:56:37;;;;;;;8.63;2.10;;;16.90;93.80;;;;;;5095042;28;20016;-64
2022/07/08 01:59:03;;;;;;;8.07;1.65;;;17.00;93.60;;;;;;5097297;28;20350;-64
2022/07/08 02:01:28;;;;;;;4.60;1.85;;;16.90;93.60;;;;;;5096989;28;20025;-64
2022/07/08 02:03:54;;;;;;;5.13;1.73;;;16.80;93.60;;;;;;5096998;28;20457;-64
2022/07/08 02:06:19;;;;;;;5.13;1.60;;;17.00;93.70;;;;;;5096733;28;20028;-64
2022/07/08 02:08:45;;;;;;;10.17;2.43;;;17.00;93.40;;;;;;5096828;28;20036;-63
2022/07/08 02:13:54;;;;;;;5.05;1.70;;;16.90;93.40;;;;;;5096786;28;20411;-64
2022/07/08 02:16:20;;;;;;;4.57;1.53;;;16.80;93.40;;;;;;5096952;28;20020;-65
2022/07/08 02:18:45;;;;;;;7.90;2.15;;;16.60;93.90;;;;;;5095455;28;20024;-65
2022/07/08 02:21:11;;;;;;;4.75;1.70;;;16.50;93.90;;;;;;5096785;28;20456;-64
2022/07/08 02:23:37;;;;;;;9.82;2.08;;;16.50;93.80;;;;;;5097536;28;20020;-65
2022/07/08 02:26:02;;;;;;;4.35;2.10;;;16.50;93.90;;;;;;5097292;28;20453;-65
2022/07/08 02:28:28;;;;;;;4.32;1.42;;;16.40;94.00;;;;;;5097093;28;20484;-64
2022/07/08 02:30:53;;;;;;;7.67;1.70;;;16.50;93.90;;;;;;5096241;28;20035;-64
2022/07/08 02:33:19;;;;;;;6.27;1.50;;;16.40;94.10;;;;;;5096285;28;20266;-63
2022/07/08 02:35:44;;;;;;;7.83;1.60;;;16.40;94.10;;;;;;5096711;28;20035;-64
2022/07/08 02:38:10;;;;;;;6.85;1.77;;;16.40;94.10;;;;;;5096845;28;20368;-64
2022/07/08 02:40:35;;;;;;;8.75;1.98;;;16.40;94.00;;;;;;5102343;28;20036;-64
2022/07/08 02:43:01;;;;;;;7.47;1.90;;;16.40;94.20;;;;;;5100792;28;20028;-68
2022/07/08 02:45:26;;;;;;;9.40;2.00;;;16.40;94.00;;;;;;5097818;28;20286;-67
2022/07/08 02:47:52;;;;;;;6.38;1.88;;;16.30;94.30;;;;;;5096977;28;20020;-67
2022/07/08 02:50:18;;;;;;;4.82;1.73;;;16.30;94.20;;;;;;5096072;28;20048;-67
2022/07/08 02:52:43;;;;;;;3.17;2.10;;;16.20;94.60;;;;;;5096125;28;20445;-67
2022/07/08 02:55:09;;;;;;;5.50;1.90;;;16.20;94.50;;;;;;5095750;28;20269;-66
2022/07/08 02:57:34;;;;;;;5.53;2.00;;;16.10;94.70;;;;;;5095581;28;20311;-67
2022/07/08 03:00:00;;;;;;;6.27;1.90;;;16.10;94.80;;;;;;5095664;28;20052;-66
2022/07/08 03:02:25;;;;;;;6.67;2.10;;;16.00;94.90;;;;;;5095545;28;20289;-66
2022/07/08 03:04:53;;;;;;;6.77;2.03;;;16.00;95.00;;;;;;5095573;28;20278;-66
2022/07/08 03:07:19;;;;;;;7.38;1.60;;;16.00;95.00;;;;;;5095542;28;20099;-66
2022/07/08 03:09:44;;;;;;;8.55;2.00;;;15.90;95.10;;;;;;5096005;28;20097;-66
2022/07/08 03:12:10;;;;;;;5.70;1.70;;;15.90;95.30;;;;;;5095748;28;20028;-67
2022/07/08 03:14:35;;;;;;;6.70;1.60;;;15.90;95.30;;;;;;5095420;28;20031;-67
2022/07/08 03:17:01;;;;;;;6.27;1.80;;;15.90;95.50;;;;;;5095256;28;20042;-67
2022/07/08 03:19:26;;;;;;;7.83;1.83;;;16.00;95.60;;;;;;5095294;28;20254;-67
2022/07/08 03:21:52;;;;;;;4.10;1.77;;;16.00;95.40;;;;;;5095526;28;20028;-67
2022/07/08 03:24:18;;;;;;;8.87;1.77;;;16.00;95.40;;;;;;5095137;28;20372;-67
2022/07/08 03:26:45;;;;;;;4.53;1.70;;;16.20;95.10;;;;;;5094179;28;20520;-68
2022/07/08 03:29:11;;;;;;;6.00;1.60;;;16.30;94.80;;;;;;5095465;28;20020;-68
2022/07/08 03:31:37;;;;;;;8.48;1.95;;;16.20;95.00;;;;;;5095572;28;20027;-67
2022/07/08 03:34:02;;;;;;;5.13;2.17;;;16.10;95.20;;;;;;5094399;28;20058;-67
2022/07/08 03:36:29;;;;;;;3.53;1.70;;;16.10;95.30;;;;;;5094971;28;20016;-67
2022/07/08 03:38:55;;;;;;;9.45;1.98;;;16.00;95.10;;;;;;5094762;28;20067;-66
2022/07/08 03:41:20;;;;;;;6.37;2.03;;;15.90;95.40;;;;;;5094877;28;20047;-66
2022/07/08 03:43:50;;;;;;;4.63;2.65;;;15.90;95.60;;;;;;5094792;28;20020;-66
2022/07/08 03:46:16;;;;;;;9.75;1.98;;;15.90;95.60;;;;;;5094812;28;20028;-66
2022/07/08 03:48:42;;;;;;;6.45;1.73;;;15.90;95.50;;;;;;5094604;28;20384;-66
2022/07/08 03:51:08;;;;;;;6.65;2.20;;;15.90;95.50;;;;;;5094619;28;20107;-67
2022/07/08 03:53:33;;;;;;;9.20;1.70;;;15.90;95.60;;;;;;5094641;28;20023;-67
2022/07/08 03:55:59;;;;;;;5.53;1.97;;;15.90;95.60;;;;;;5094764;28;20024;-66
2022/07/08 03:58:25;;;;;;;7.47;1.80;;;15.80;95.70;;;;;;5094510;28;20269;-66
2022/07/08 04:00:50;;;;;;;9.30;2.40;;;15.90;95.60;;;;;;5092908;28;20341;-66
2022/07/08 04:03:16;;;;;;;5.53;1.83;;;15.90;95.70;;;;;;5092552;28;20258;-66
2022/07/08 04:05:41;;;;;;;6.43;2.20;;;15.80;95.80;;;;;;5092525;28;20062;-67
2022/07/08 04:08:07;;;;;;;6.97;1.90;;;15.90;95.80;;;;;;5094212;28;20016;-67
2022/07/08 04:10:33;;;;;;;9.60;1.90;;;15.80;95.80;;;;;;5094391;28;20020;-68
2022/07/08 04:12:58;;;;;;;7.50;2.00;;;15.80;95.70;;;;;;5094567;28;20023;-68
2022/07/08 04:15:24;;;;;;;5.63;2.00;;;15.80;95.60;;;;;;5094198;28;20481;-67
2022/07/08 04:17:49;;;;;;;8.50;2.30;;;15.90;95.70;;;;;;5094089;28;20092;-68
2022/07/08 04:20:15;;;;;;;4.93;1.80;;;15.80;95.60;;;;;;5093533;28;20500;-67
2022/07/08 04:22:41;;;;;;;5.07;1.70;;;15.80;95.40;;;;;;5093294;28;20089;-69
2022/07/08 04:25:07;;;;;;;4.53;1.77;;;15.70;96.10;;;;;;5097334;28;20024;-68
2022/07/08 04:27:33;;;;;;;4.82;2.28;;;15.80;95.90;;;;;;5096232;28;20515;-68
2022/07/08 04:29:59;;;;;;;6.00;2.05;;;15.80;96.00;;;;;;5090968;28;20057;-66
2022/07/08 04:32:24;;;;;;;11.00;2.17;;;15.80;95.90;;;;;;5090453;28;20051;-68
2022/07/08 04:34:51;;;;;;;11.50;2.43;;;15.80;95.90;;;;;;5092257;28;20765;-68
2022/07/08 04:37:17;;;;;;;3.95;1.98;;;15.80;96.00;;;;;;5092562;28;20024;-67
2022/07/08 04:39:43;;;;;;;6.82;2.30;;;15.80;96.00;;;;;;5093900;28;20066;-69
2022/07/08 04:42:09;;;;;;;7.07;2.03;;;15.80;96.20;;;;;;5093751;28;20036;-68
2022/07/08 04:44:34;;;;;;;6.87;1.83;;;15.80;96.00;;;;;;5093898;28;20034;-66
2022/07/08 04:47:00;;;;;;;9.33;2.27;;;15.80;96.10;;;;;;5094620;28;20622;-66
2022/07/08 04:49:26;;;;;;;5.03;1.65;;;15.80;96.30;;;;;;5094872;28;20024;-66
2022/07/08 04:51:51;;;;;;;5.60;1.55;;;15.80;96.40;;;;;;5094193;28;20043;-66
2022/07/08 04:54:17;;;;;;;6.20;1.50;;;15.70;96.40;;;;;;5094086;28;20414;-66
2022/07/08 04:56:42;;;;;;;9.57;2.10;;;15.70;96.60;;;;;;5094198;28;20269;-66
2022/07/08 04:59:08;;;;;;;6.87;1.80;;;15.80;96.70;;;;;;5094834;28;20031;-67
2022/07/08 05:01:34;;;;;;;7.70;2.03;;;15.80;96.70;;;;;;5094817;28;20024;-68
2022/07/08 05:03:59;;;;;;;9.27;2.28;;;15.90;96.80;;;;;;5094510;28;20032;-66
2022/07/08 05:06:25;;;;;;;10.25;1.88;;;15.90;96.70;;;;;;5093914;28;20032;-67
2022/07/08 05:08:51;;;;;;;7.67;2.20;;;15.90;96.80;;;;;;5093789;28;20131;-67
2022/07/08 05:11:16;;;;;;;6.68;1.80;;;15.90;96.80;;;;;;5094043;28;20361;-67
2022/07/08 05:13:42;;;;;;;6.00;1.73;;;15.90;96.90;;;;;;5093797;28;20024;-67
2022/07/08 05:16:07;;;;;;;6.22;1.95;;;15.90;97.00;;;;;;5094185;28;20109;-68
2022/07/08 05:18:33;;;;;;;8.15;2.75;;;15.90;97.20;;;;;;5092716;28;20085;-68
2022/07/08 05:20:58;;;;;;;8.67;1.77;;;15.90;97.10;;;;;;5092421;28;20024;-68
2022/07/08 05:23:24;;;;;;;7.30;2.37;;;16.00;97.20;;;;;;5093965;28;20315;-67
2022/07/08 05:25:50;;;;;;;8.07;2.23;;;15.90;96.90;;;;;;5095779;28;20286;-69
2022/07/08 05:28:15;;;;;;;7.10;1.50;;;15.90;97.30;;;;;;5095657;28;20056;-69
2022/07/08 05:30:41;;;;;;;8.57;2.00;;;16.00;97.20;;;;;;5095000;28;20020;-68
2022/07/08 05:33:06;;;;;;;14.27;2.30;;;16.00;97.20;;;;;;5094036;28;20066;-68
2022/07/08 05:35:32;;;;;;;11.37;2.20;;;16.10;97.40;;;;;;5093721;28;20028;-68
2022/07/08 05:37:57;;;;;;;7.22;1.73;;;16.10;97.20;;;;;;5093581;28;20036;-68
2022/07/08 05:40:23;;;;;;;6.88;1.55;;;16.20;96.80;;;;;;5092028;28;20511;-67
2022/07/08 05:42:49;;;;;;;9.77;2.15;;;16.10;97.00;;;;;;5093125;28;20024;-68
2022/07/08 05:45:14;;;;;;;5.63;1.63;;;16.30;96.70;;;;;;5093470;28;20244;-68
2022/07/08 05:47:40;;;;;;;7.13;2.13;;;16.20;96.80;;;;;;5092534;28;20028;-69
2022/07/08 05:50:06;;;;;;;5.88;2.05;;;16.30;96.80;;;;;;5091384;28;20121;-68
2022/07/08 05:52:32;;;;;;;;;;;16.30;97.00;;;;;;5091902;28;20024;-69
2022/07/08 05:54:58;;;;;;;6.05;1.63;;;16.20;96.80;;;;;;5092631;28;19904;-68
2022/07/08 05:57:23;;;;;;;10.10;2.30;;;16.20;96.80;;;;;;5092837;28;20051;-69
2022/07/08 05:59:52;;;;;;;7.97;2.07;;;16.20;97.00;;;;;;5092952;28;20492;-69
2022/07/08 06:02:18;;;;;;;6.22;1.88;;;16.20;97.20;;;;;;5091307;28;20264;-68
2022/07/08 06:04:44;;;;;;;6.97;2.00;;;16.30;96.90;;;;;;5091336;28;20116;-68
2022/07/08 06:07:09;;;;;;;7.68;2.35;;;16.40;96.90;;;;;;5092816;28;20127;-68
2022/07/08 06:09:37;;;;;;;6.13;1.80;;;16.40;96.80;;;;;;5092467;28;20100;-69
2022/07/08 06:12:03;;;;;;;9.02;2.10;;;16.40;96.60;;;;;;5093431;28;20730;-69
2022/07/08 06:14:29;;;;;;;5.00;1.55;;;16.40;96.70;;;;;;5093087;28;20536;-69
2022/07/08 06:16:54;;;;;;;7.57;1.73;;;16.40;96.70;;;;;;5092713;28;20085;-69
2022/07/08 06:19:20;;;;;;;13.43;2.83;;;16.40;96.30;;;;;;5092677;28;20024;-69
2022/07/08 06:21:45;;;;;;;5.30;1.65;;;16.50;96.50;;;;;;5092726;28;20032;-69
2022/07/08 06:24:11;;;;;;;4.45;1.50;;;16.60;96.40;;;;;;5092999;28;20107;-69
2022/07/08 06:26:37;;;;;;;9.00;1.77;;;16.60;96.30;;;;;;5093712;28;20028;-69
2022/07/08 06:29:03;;;;;;;8.65;1.63;;;16.70;96.20;;;;;;5093742;28;20320;-69
2022/07/08 06:31:29;;;;;;;;;;;16.70;95.60;;;;;;5093956;28;20366;-71
2022/07/08 06:33:58;;;;;;;4.85;1.58;;;16.80;95.70;;;;;;5093059;28;20017;-68
2022/07/08 06:36:26;;;;;;;5.78;1.63;;;16.90;95.60;;;;;;5092389;28;20361;-68
2022/07/08 06:38:52;;;;;;;7.88;1.90;;;16.80;95.00;;;;;;5090765;28;20119;-67
2022/07/08 06:41:18;;;;;;;;;;;16.80;95.00;;;;;;5092935;28;20028;-68
2022/07/08 06:43:47;;;;;;;7.35;1.50;;;16.90;94.90;;;;;;5095675;28;19904;-69
2022/07/08 06:46:13;;;;;;;9.38;1.63;;;16.90;94.60;;;;;;5094712;28;20445;-69
2022/07/08 06:48:39;;;;;;;5.60;1.65;;;16.90;94.60;;;;;;5096086;28;20027;-68
2022/07/08 06:51:04;;;;;;;6.60;1.50;;;17.00;94.40;;;;;;5096129;28;20025;-68
2022/07/08 06:54:34;;;;;;;5.18;1.30;;;17.10;94.20;;;;;;5096305;28;20048;-68
2022/07/08 06:56:16;;;;;;;6.28;1.35;;;17.20;94.00;;;;;;5096012;28;20392;-68
2022/07/08 06:58:42;;;;;;;6.45;1.55;;;17.10;93.70;;;;;;5096185;28;20024;-69
2022/07/08 07:01:07;;;;;;;9.60;1.83;;;17.20;94.00;;;;;;5095933;28;20433;-69
2022/07/08 07:03:33;;;;;;;6.32;1.50;;;17.30;94.00;;;;;;5097701;28;20032;-68
2022/07/08 07:05:58;;;;;;;9.07;2.53;;;17.30;93.70;;;;;;5100389;28;20397;-68
2022/07/08 07:08:24;;;;;;;9.25;1.55;;;17.30;93.80;;;;;;5096950;28;20331;-68
2022/07/08 07:10:49;;;;;;;6.90;2.10;;;17.30;93.60;;;;;;5097614;28;20031;-68
2022/07/08 07:13:15;;;;;;;4.30;1.42;;;17.40;93.70;;;;;;5098929;28;20031;-67
2022/07/08 07:15:41;;;;;;;7.40;1.88;;;17.50;93.60;;;;;;5098651;28;20103;-68
2022/07/08 07:18:08;;;;;;;5.72;1.45;;;17.70;93.50;;;;;;5099491;28;20423;-68
2022/07/08 07:20:34;;;;;;;10.65;2.20;;;17.90;92.70;;;;;;5099442;28;20024;-68
2022/07/08 07:23:00;;;;;;;6.60;1.48;;;18.00;92.50;;;;;;5099314;28;20110;-68
2022/07/08 07:25:25;;;;;;;10.27;1.63;;;17.90;92.40;;;;;;5098845;28;20059;-68
2022/07/08 07:27:51;;;;;;;5.68;1.20;;;17.90;91.80;;;;;;5098733;28;20042;-68
2022/07/08 07:30:16;;;;;;;5.07;1.50;;;17.90;91.30;;;;;;5102173;28;20031;-69
2022/07/08 07:32:42;;;;;;;5.25;1.23;;;17.90;91.50;;;;;;5101531;28;20024;-67
2022/07/08 07:35:08;;;;;;;6.53;1.60;;;17.90;91.90;;;;;;5098284;28;20063;-69
2022/07/08 07:37:38;;;;;;;4.35;1.10;;;18.00;91.80;;;;;;5095501;28;20484;-67
2022/07/08 07:40:05;;;;;;;5.68;1.40;;;18.20;91.40;;;;;;5097396;28;20027;-67
2022/07/08 07:42:31;;;;;;;8.32;1.55;;;18.50;90.80;;;;;;5097154;28;20034;-68
2022/07/08 07:44:56;;;;;;;12.18;1.75;;;18.80;90.60;;;;;;5095816;28;20536;-69
2022/07/08 07:47:22;;;;;;;4.72;1.25;;;19.10;90.20;;;;;;5095397;28;20055;-68
2022/07/08 07:49:47;;;;;;;8.27;3.45;;;19.30;89.70;;;;;;5095382;28;20515;-68
2022/07/08 07:52:13;;;;;;;5.07;1.15;;;19.60;88.40;;;;;;5095615;28;20055;-68
2022/07/08 07:54:38;;;;;;;3.83;1.20;;;20.00;87.70;;;;;;5097159;28;20017;-68
2022/07/08 07:57:04;;;;;;;5.22;1.33;;;20.20;86.90;;;;;;5095822;28;20024;-69
2022/07/08 07:59:30;;;;;;;5.07;1.23;;;20.20;86.80;;;;;;5094904;28;20474;-68
2022/07/08 08:01:55;;;;;;;6.75;1.48;;;20.30;86.90;;;;;;5094766;28;20073;-70
2022/07/08 08:04:21;;;;;;;5.50;1.55;;;20.40;85.10;;;;;;5095274;28;20024;-69
2022/07/08 08:06:47;;;;;;;4.85;1.30;;;20.50;84.20;;;;;;5095571;28;20499;-68
2022/07/08 08:09:12;;;;;;;4.63;1.10;;;20.20;84.50;;;;;;5095146;28;20095;-67
2022/07/08 08:11:38;;;;;;;5.88;1.42;;;20.60;82.30;;;;;;5093525;28;20027;-68
2022/07/08 08:14:03;;;;;;;2.47;0.93;;;21.20;81.80;;;;;;5095103;28;20020;-67
2022/07/08 08:16:29;;;;;;;;;;;22.70;79.50;;;;;;5094867;28;20433;-67
2022/07/08 08:18:54;;;;;;;3.42;1.00;;;24.60;75.10;;;;;;5094816;28;19904;-68
2022/07/08 08:21:20;;;;;;;3.17;1.20;;;26.50;71.40;;;;;;5094720;28;20150;-69
2022/07/08 08:23:45;;;;;;;3.35;1.10;;;28.10;66.70;;;;;;5094703;28;20031;-70
2022/07/08 08:26:11;;;;;;;6.28;1.45;;;30.50;63.50;;;;;;5094786;28;20103;-69
2022/07/08 08:28:36;;;;;;;4.53;1.45;;;32.60;60.00;;;;;;5093501;28;20219;-69
2022/07/08 08:31:02;;;;;;;3.90;1.30;;;33.70;56.50;;;;;;5097293;28;20077;-69
2022/07/08 08:33:27;;;;;;;6.88;1.45;;;33.30;55.60;;;;;;5094101;28;20028;-69
2022/07/08 08:35:53;;;;;;;3.17;1.10;;;32.80;55.80;;;;;;5094164;28;20031;-70
2022/07/08 08:38:19;;;;;;;3.78;1.13;;;33.40;54.50;;;;;;5094606;28;20035;-69
2022/07/08 08:40:46;;;;;;;4.40;1.33;;;33.30;53.40;;;;;;5094485;28;20028;-69
2022/07/08 08:43:13;;;;;;;3.47;1.05;;;34.10;53.20;;;;;;5093394;28;20381;-64
2022/07/08 08:45:39;;;;;;;4.35;1.40;;;35.40;51.30;;;;;;5093553;28;20024;-64
2022/07/08 08:48:10;;;;;;;4.25;1.38;;;35.40;50.70;;;;;;5092428;28;20031;-63
2022/07/08 08:50:54;;;;;;;3.95;1.27;;;35.70;50.00;;;;;;5092419;28;20501;-63
2022/07/08 08:53:29;;;;;;;2.72;0.93;;;34.20;50.10;;;;;;5094039;28;20376;-63
2022/07/08 08:55:56;;;;;;;3.53;1.30;;;31.20;52.50;;;;;;5094166;28;20027;-64
2022/07/08 08:58:22;;;;;;;3.40;1.15;;;29.20;54.60;;;;;;5093817;28;20024;-63
2022/07/08 09:00:48;;;;;;;4.32;1.40;;;29.20;54.80;;;;;;5092250;28;20385;-63
2022/07/08 09:03:13;;;;;;;2.75;1.05;;;30.70;53.80;;;;;;5093718;28;20111;-63
2022/07/08 09:05:39;;;;;;;5.32;1.23;;;30.50;52.80;;;;;;5091728;28;20024;-63
2022/07/08 09:08:05;;;;;;;2.10;0.90;;;31.10;52.90;;;;;;5091985;28;20029;-64
2022/07/08 09:10:30;;;;;;;16.70;2.25;;;31.90;52.30;;;;;;5094203;28;20427;-63
2022/07/08 09:13:10;;;;;;;4.03;1.83;;;31.40;53.30;;;;;;5094910;28;20059;-63
2022/07/08 09:15:44;;;;;;;3.33;1.17;;;32.20;52.00;;;;;;5095212;28;20031;-63
2022/07/08 09:18:14;;;;;;;5.57;1.23;;;33.40;51.50;;;;;;5096324;28;20024;-64
2022/07/08 09:20:40;;;;;;;5.18;1.55;;;34.50;50.40;;;;;;5095850;28;20481;-63
2022/07/08 09:23:12;;;;;;;4.00;1.50;;;35.00;49.50;;;;;;5094700;28;20028;-63
2022/07/08 09:25:38;;;;;;;3.08;1.00;;;35.60;48.90;;;;;;5093787;28;20521;-63
2022/07/08 09:28:03;;;;;;;2.85;1.00;;;35.20;48.20;;;;;;5094503;28;20059;-63
2022/07/08 09:30:32;;;;;;;5.38;1.30;;;35.00;47.90;;;;;;5095680;28;20016;-64
2022/07/08 09:33:00;;;;;;;3.42;1.10;;;33.60;49.10;;;;;;5094947;28;20054;-63
2022/07/08 09:35:37;;;;;;;4.13;1.10;;;33.50;49.90;;;;;;5094516;28;20095;-65
2022/07/08 09:38:07;;;;;;;1.90;0.93;;;34.00;49.60;;;;;;5093588;28;20032;-64
2022/07/08 09:40:34;;;;;;;4.63;1.10;;;35.20;47.80;;;;;;5093489;28;20065;-63
2022/07/08 09:43:11;;;;;;;3.58;1.55;;;34.80;48.40;;;;;;5093204;28;20059;-63
2022/07/08 09:45:37;;;;;;;2.47;1.50;;;35.70;48.30;;;;;;5092714;28;20017;-63
2022/07/08 09:48:05;;;;;;;4.68;1.30;;;35.80;48.00;;;;;;5092609;28;20031;-64
2022/07/08 09:50:36;;;;;;;5.00;1.40;;;35.90;48.00;;;;;;5092991;28;20057;-64
2022/07/08 09:53:11;;;;;;;4.25;1.27;;;36.50;47.50;;;;;;5092755;28;20021;-64
2022/07/08 09:55:40;;;;;;;3.60;1.20;;;37.10;47.20;;;;;;5092913;28;20024;-63
2022/07/08 09:58:07;;;;;;;2.53;1.10;;;38.30;46.60;;;;;;5092914;28;20172;-64
2022/07/08 10:00:33;;;;;;;4.32;1.15;;;39.20;45.70;;;;;;5092962;28;20387;-63
2022/07/08 10:03:04;;;;;;;5.30;1.88;;;39.30;45.30;;;;;;5092774;28;20028;-64
2022/07/08 10:05:30;;;;;;;4.50;1.17;;;39.70;44.70;;;;;;5093263;28;20487;-65
2022/07/08 10:07:56;;;;;;;3.83;1.20;;;39.70;44.60;;;;;;5093856;28;20032;-64
2022/07/08 10:10:23;;;;;;;3.88;1.27;;;38.10;44.60;;;;;;5096018;28;20028;-64
2022/07/08 10:12:50;;;;;;;4.15;1.15;;;35.40;46.40;;;;;;5096835;28;20056;-64
2022/07/08 10:15:17;;;;;;;4.50;1.80;;;33.80;47.90;;;;;;5095559;28;20043;-64
2022/07/08 10:17:45;;;;;;;4.50;1.52;;;33.60;48.10;;;;;;5097672;28;20028;-64
2022/07/08 10:20:15;;;;;;;4.03;1.20;;;34.50;48.10;;;;;;5099935;28;20075;-64
2022/07/08 10:22:46;;;;;;;3.42;1.10;;;34.70;47.90;;;;;;5098329;28;20051;-64
2022/07/08 10:25:12;;;;;;;3.70;1.10;;;34.90;47.60;;;;;;5098022;28;20072;-65
2022/07/08 10:27:38;;;;;;;5.60;1.73;;;34.40;47.60;;;;;;5097051;28;20076;-64
2022/07/08 10:30:20;;;;;;;5.35;1.30;;;34.60;47.70;;;;;;5097178;28;20481;-65
2022/07/08 10:32:52;;;;;;;4.25;1.60;;;34.70;47.90;;;;;;5097107;28;20024;-64
2022/07/08 10:35:21;;;;;;;4.35;1.58;;;34.40;48.30;;;;;;5096524;28;20492;-64
2022/07/08 10:37:59;;;;;;;4.28;1.50;;;34.10;48.30;;;;;;5096172;28;20507;-64
2022/07/08 10:40:43;;;;;;;3.40;1.02;;;34.30;47.50;;;;;;5097209;28;20034;-64
2022/07/08 10:43:28;;;;;;;3.85;1.10;;;34.10;48.00;;;;;;5096830;28;20097;-64
2022/07/08 10:46:24;;;;;;;4.43;1.48;;;34.40;47.90;;;;;;5096658;28;20043;-64
2022/07/08 10:48:57;;;;;;;;;;;33.80;48.10;;;;;;5087799;28;20040;-65
2022/07/08 10:51:24;;;;;;;5.28;1.23;;;34.70;47.30;;;;;;5096608;28;19953;-64
2022/07/08 10:53:55;;;;;;;4.85;1.55;;;34.70;47.30;;;;;;5096617;28;20068;-66
2022/07/08 10:56:56;;;;;;;5.90;1.52;;;33.80;47.40;;;;;;5095853;28;20039;-67
2022/07/08 10:59:32;;;;;;;4.25;1.30;;;33.60;48.00;;;;;;5096180;28;20473;-67
2022/07/08 11:02:09;;;;;;;4.50;1.25;;;33.50;48.10;;;;;;5095936;28;20495;-65
2022/07/08 11:04:34;;;;;;;14.23;1.75;;;31.80;49.30;;;;;;5096068;28;20424;-65
2022/07/08 11:07:24;;;;;;;4.10;1.15;;;31.80;50.10;;;;;;5097515;28;20100;-66
2022/07/08 11:10:03;;;;;;;3.45;1.17;;;32.10;49.70;;;;;;5097779;28;20028;-66
2022/07/08 11:12:41;;;;;;;5.53;1.95;;;31.90;49.90;;;;;;5099107;28;20052;-66
2022/07/08 11:15:16;;;;;;;4.35;1.20;;;31.30;50.20;;;;;;5097431;28;20028;-66
2022/07/08 11:17:42;;;;;;;;;;;30.30;51.10;;;;;;5098170;28;20481;-66
2022/07/08 11:20:10;;;;;;;5.28;1.30;;;29.10;52.40;;;;;;5096803;28;19931;-67
2022/07/08 11:22:38;;;;;;;4.60;1.58;;;28.00;53.80;;;;;;5096821;28;20036;-66
2022/07/08 11:25:05;;;;;;;7.30;1.00;;;27.10;54.20;;;;;;5097312;28;20028;-67
2022/07/08 11:27:33;;;;;;;3.53;1.20;;;25.80;56.70;;;;;;5096799;28;20534;-66
2022/07/08 11:29:59;;;;;;;4.38;0.90;;;25.30;58.20;;;;;;5097779;28;20329;-67
2022/07/08 11:32:26;;;;;;;4.65;1.35;;;24.80;59.20;;;;;;5097391;28;20028;-66
2022/07/08 11:34:53;;;;;;;4.43;1.33;;;24.60;59.50;;;;;;5097528;28;20056;-66
2022/07/08 11:37:19;;;;;;;6.68;1.20;;;24.50;59.70;;;;;;5097394;28;20039;-66
2022/07/08 11:39:45;;;;;;;;;;;24.40;60.10;;;;;;5098239;28;20036;-66
2022/07/08 11:42:15;;;;;;;5.93;1.00;;;24.30;60.00;;;;;;5096527;28;19910;-67
2022/07/08 11:44:44;;;;;;;4.07;0.80;;;24.00;60.40;;;;;;5096669;28;20042;-65
2022/07/08 11:47:13;;;;;;;5.60;1.27;;;24.00;60.40;;;;;;5096760;28;20028;-65
2022/07/08 11:49:43;;;;;;;8.18;1.27;;;23.90;59.20;;;;;;5097301;28;20440;-66
2022/07/08 11:52:09;;;;;;;3.60;0.85;;;24.00;59.60;;;;;;5098756;28;20048;-67
2022/07/08 11:54:35;;;;;;;5.28;1.10;;;23.90;59.80;;;;;;5096961;28;20024;-67
2022/07/08 11:57:01;;;;;;;2.55;0.75;;;23.90;59.70;;;;;;5095516;28;20156;-68
2022/07/08 11:59:32;;;;;;;6.18;1.60;;;23.80;60.80;;;;;;5094991;28;20020;-67
2022/07/08 12:01:59;;;;;;;7.85;1.75;;;23.80;59.20;;;;;;5095459;28;20039;-66
2022/07/08 12:04:25;;;;;;;7.00;1.17;;;23.60;60.20;;;;;;5095528;28;20024;-66
2022/07/08 12:06:55;;;;;;;;;;;23.60;60.70;;;;;;5095997;28;20508;-67
2022/07/08 12:09:22;;;;;;;7.95;1.50;;;23.40;60.50;;;;;;5094898;28;19910;-67
2022/07/08 12:11:50;;;;;;;3.25;1.20;;;23.10;61.50;;;;;;5097361;28;20528;-65
2022/07/08 12:14:17;;;;;;;5.15;1.50;;;22.90;62.10;;;;;;5096377;28;20116;-66
2022/07/08 12:16:43;;;;;;;4.28;1.15;;;22.90;62.30;;;;;;5096129;28;20027;-66
2022/07/08 12:19:29;;;;;;;5.60;1.10;;;23.00;62.00;;;;;;5095246;28;20469;-66
2022/07/08 12:21:57;;;;;;;3.58;0.90;;;23.10;62.10;;;;;;5094867;28;20016;-66
2022/07/08 12:24:25;;;;;;;10.50;1.90;;;23.20;61.80;;;;;;5094678;28;20389;-64
2022/07/08 12:26:58;;;;;;;4.35;1.38;;;23.20;61.60;;;;;;5094607;28;20031;-66
2022/07/08 12:29:25;;;;;;;3.45;0.88;;;23.30;61.20;;;;;;5094301;28;20443;-64
2022/07/08 12:31:51;;;;;;;4.30;0.82;;;23.40;60.20;;;;;;5094180;28;20480;-66
2022/07/08 12:34:18;;;;;;;4.88;1.00;;;23.50;60.40;;;;;;5095324;28;20035;-65
2022/07/08 12:36:44;;;;;;;2.70;0.70;;;23.30;60.50;;;;;;5093359;28;20115;-65
2022/07/08 12:39:18;;;;;;;3.00;1.02;;;23.40;60.40;;;;;;5094010;28;20154;-65
2022/07/08 12:42:05;;;;;;;2.45;0.93;;;23.50;60.50;;;;;;5094660;28;20052;-65
2022/07/08 12:44:33;;;;;;;5.10;1.37;;;23.50;59.80;;;;;;5094015;28;20036;-66
2022/07/08 12:46:59;;;;;;;7.28;1.42;;;23.20;60.50;;;;;;5093819;28;20028;-65
2022/07/08 12:49:28;;;;;;;4.93;1.38;;;23.20;61.30;;;;;;5094135;28;20455;-66
2022/07/08 12:51:54;;;;;;;3.78;1.13;;;23.20;61.00;;;;;;5094397;28;20012;-65